sensor_id;sensor_type;location;lat;lon;timestamp;P1;durP1;ratioP1;P2;durP2;ratioP2
34725;SDS011;20951;50.818;4.344;2023-10-08T00:00:49;5.72;;;3.17;;
34725;SDS011;20951;50.818;4.344;2023-10-08T00:03:18;5.97;;;3.20;;
34725;SDS011;20951;50.818;4.344;2023-10-08T00:05:45;7.43;;;3.50;;
34725;SDS011;20951;50.818;4.344;2023-10-08T00:08:14;8.15;;;3.72;;
34725;SDS011;20951;50.818;4.344;2023-10-08T00:10:41;11.55;;;4.07;;
34725;SDS011;20951;50.818;4.344;2023-10-08T00:13:09;8.25;;;3.97;;
34725;SDS011;20951;50.818;4.344;2023-10-08T00:15:39;6.68;;;3.70;;
34725;SDS011;20951;50.818;4.344;2023-10-08T00:18:14;8.52;;;3.28;;
34725;SDS011;20951;50.818;4.344;2023-10-08T00:20:51;9.25;;;3.90;;
34725;SDS011;20951;50.818;4.344;2023-10-08T00:23:23;7.00;;;3.40;;
34725;SDS011;20951;50.818;4.344;2023-10-08T00:25:55;8.25;;;3.42;;
34725;SDS011;20951;50.818;4.344;2023-10-08T00:28:23;9.13;;;3.85;;
34725;SDS011;20951;50.818;4.344;2023-10-08T00:30:56;9.88;;;3.47;;
34725;SDS011;20951;50.818;4.344;2023-10-08T00:33:23;8.38;;;3.63;;
34725;SDS011;20951;50.818;4.344;2023-10-08T00:35:49;8.90;;;3.28;;
34725;SDS011;20951;50.818;4.344;2023-10-08T00:38:15;6.85;;;3.40;;
34725;SDS011;20951;50.818;4.344;2023-10-08T00:40:45;8.80;;;3.70;;
34725;SDS011;20951;50.818;4.344;2023-10-08T00:43:28;9.23;;;3.53;;
34725;SDS011;20951;50.818;4.344;2023-10-08T00:46:02;9.48;;;3.60;;
34725;SDS011;20951;50.818;4.344;2023-10-08T00:48:29;6.63;;;3.38;;
34725;SDS011;20951;50.818;4.344;2023-10-08T00:51:01;7.32;;;3.65;;
34725;SDS011;20951;50.818;4.344;2023-10-08T00:53:42;7.30;;;3.45;;
34725;SDS011;20951;50.818;4.344;2023-10-08T00:56:12;9.40;;;3.90;;
34725;SDS011;20951;50.818;4.344;2023-10-08T00:58:50;8.70;;;4.45;;
34725;SDS011;20951;50.818;4.344;2023-10-08T01:01:18;8.07;;;3.88;;
34725;SDS011;20951;50.818;4.344;2023-10-08T01:03:47;8.70;;;3.97;;
34725;SDS011;20951;50.818;4.344;2023-10-08T01:06:28;10.48;;;3.92;;
34725;SDS011;20951;50.818;4.344;2023-10-08T01:08:56;9.48;;;4.30;;
34725;SDS011;20951;50.818;4.344;2023-10-08T01:11:32;8.48;;;3.90;;
34725;SDS011;20951;50.818;4.344;2023-10-08T01:14:11;9.65;;;4.13;;
34725;SDS011;20951;50.818;4.344;2023-10-08T01:16:36;8.77;;;3.70;;
34725;SDS011;20951;50.818;4.344;2023-10-08T01:19:04;8.45;;;4.05;;
34725;SDS011;20951;50.818;4.344;2023-10-08T01:21:37;7.95;;;3.83;;
34725;SDS011;20951;50.818;4.344;2023-10-08T01:24:05;7.95;;;3.60;;
34725;SDS011;20951;50.818;4.344;2023-10-08T01:26:34;6.88;;;3.50;;
34725;SDS011;20951;50.818;4.344;2023-10-08T01:29:04;10.18;;;4.35;;
34725;SDS011;20951;50.818;4.344;2023-10-08T01:31:36;9.50;;;3.65;;
34725;SDS011;20951;50.818;4.344;2023-10-08T01:34:05;8.15;;;3.58;;
34725;SDS011;20951;50.818;4.344;2023-10-08T01:36:31;9.85;;;4.00;;
34725;SDS011;20951;50.818;4.344;2023-10-08T01:39:00;8.00;;;3.80;;
34725;SDS011;20951;50.818;4.344;2023-10-08T01:41:31;9.63;;;4.05;;
34725;SDS011;20951;50.818;4.344;2023-10-08T01:44:06;9.38;;;4.10;;
34725;SDS011;20951;50.818;4.344;2023-10-08T01:46:33;12.57;;;4.00;;
34725;SDS011;20951;50.818;4.344;2023-10-08T01:48:59;7.32;;;4.00;;
34725;SDS011;20951;50.818;4.344;2023-10-08T01:51:30;9.50;;;3.92;;
34725;SDS011;20951;50.818;4.344;2023-10-08T01:54:04;8.95;;;4.03;;
34725;SDS011;20951;50.818;4.344;2023-10-08T01:56:40;7.72;;;3.90;;
34725;SDS011;20951;50.818;4.344;2023-10-08T01:59:09;10.73;;;3.92;;
34725;SDS011;20951;50.818;4.344;2023-10-08T02:01:38;9.07;;;4.30;;
34725;SDS011;20951;50.818;4.344;2023-10-08T02:04:10;9.30;;;4.57;;
34725;SDS011;20951;50.818;4.344;2023-10-08T02:06:41;7.88;;;4.00;;
34725;SDS011;20951;50.818;4.344;2023-10-08T02:09:07;8.15;;;3.90;;
34725;SDS011;20951;50.818;4.344;2023-10-08T02:11:45;9.43;;;4.07;;
34725;SDS011;20951;50.818;4.344;2023-10-08T02:14:15;9.98;;;4.00;;
34725;SDS011;20951;50.818;4.344;2023-10-08T02:16:42;8.55;;;3.78;;
34725;SDS011;20951;50.818;4.344;2023-10-08T02:19:11;8.18;;;4.00;;
34725;SDS011;20951;50.818;4.344;2023-10-08T02:21:39;11.80;;;3.97;;
34725;SDS011;20951;50.818;4.344;2023-10-08T02:24:15;9.27;;;3.92;;
34725;SDS011;20951;50.818;4.344;2023-10-08T02:26:40;8.75;;;3.92;;
34725;SDS011;20951;50.818;4.344;2023-10-08T02:29:08;7.78;;;3.95;;
34725;SDS011;20951;50.818;4.344;2023-10-08T02:31:41;8.77;;;4.23;;
34725;SDS011;20951;50.818;4.344;2023-10-08T02:34:06;10.63;;;4.22;;
34725;SDS011;20951;50.818;4.344;2023-10-08T02:36:42;9.73;;;4.18;;
34725;SDS011;20951;50.818;4.344;2023-10-08T02:39:08;10.13;;;4.10;;
34725;SDS011;20951;50.818;4.344;2023-10-08T02:41:54;10.38;;;4.05;;
34725;SDS011;20951;50.818;4.344;2023-10-08T02:44:23;7.72;;;4.05;;
34725;SDS011;20951;50.818;4.344;2023-10-08T02:46:57;7.57;;;3.92;;
34725;SDS011;20951;50.818;4.344;2023-10-08T02:49:23;8.95;;;3.80;;
34725;SDS011;20951;50.818;4.344;2023-10-08T02:51:49;10.75;;;4.00;;
34725;SDS011;20951;50.818;4.344;2023-10-08T02:54:22;9.48;;;4.25;;
34725;SDS011;20951;50.818;4.344;2023-10-08T02:56:59;8.77;;;4.05;;
34725;SDS011;20951;50.818;4.344;2023-10-08T02:59:29;9.60;;;4.05;;
34725;SDS011;20951;50.818;4.344;2023-10-08T03:02:24;8.20;;;3.63;;
34725;SDS011;20951;50.818;4.344;2023-10-08T03:04:51;10.20;;;4.03;;
34725;SDS011;20951;50.818;4.344;2023-10-08T03:07:18;9.10;;;4.05;;
34725;SDS011;20951;50.818;4.344;2023-10-08T03:09:51;10.05;;;4.20;;
34725;SDS011;20951;50.818;4.344;2023-10-08T03:12:28;11.05;;;4.10;;
34725;SDS011;20951;50.818;4.344;2023-10-08T03:15:05;8.02;;;4.15;;
34725;SDS011;20951;50.818;4.344;2023-10-08T03:17:49;8.60;;;3.90;;
34725;SDS011;20951;50.818;4.344;2023-10-08T03:20:18;11.57;;;4.43;;
34725;SDS011;20951;50.818;4.344;2023-10-08T03:23:15;10.00;;;4.13;;
34725;SDS011;20951;50.818;4.344;2023-10-08T03:25:58;9.05;;;4.28;;
34725;SDS011;20951;50.818;4.344;2023-10-08T03:28:43;10.65;;;4.32;;
34725;SDS011;20951;50.818;4.344;2023-10-08T03:31:12;9.75;;;4.50;;
34725;SDS011;20951;50.818;4.344;2023-10-08T03:33:52;10.48;;;4.45;;
34725;SDS011;20951;50.818;4.344;2023-10-08T03:36:22;9.90;;;4.45;;
34725;SDS011;20951;50.818;4.344;2023-10-08T03:39:12;9.68;;;4.22;;
34725;SDS011;20951;50.818;4.344;2023-10-08T03:41:43;8.93;;;4.72;;
34725;SDS011;20951;50.818;4.344;2023-10-08T03:44:28;11.57;;;4.40;;
34725;SDS011;20951;50.818;4.344;2023-10-08T03:46:55;9.85;;;4.95;;
34725;SDS011;20951;50.818;4.344;2023-10-08T03:49:25;7.43;;;4.65;;
34725;SDS011;20951;50.818;4.344;2023-10-08T03:51:56;11.25;;;4.63;;
34725;SDS011;20951;50.818;4.344;2023-10-08T03:54:22;8.43;;;4.05;;
34725;SDS011;20951;50.818;4.344;2023-10-08T03:57:00;10.88;;;4.78;;
34725;SDS011;20951;50.818;4.344;2023-10-08T03:59:36;9.30;;;4.60;;
34725;SDS011;20951;50.818;4.344;2023-10-08T04:02:05;9.68;;;4.70;;
34725;SDS011;20951;50.818;4.344;2023-10-08T04:07:40;13.35;;;4.80;;
34725;SDS011;20951;50.818;4.344;2023-10-08T04:10:29;9.23;;;4.57;;
34725;SDS011;20951;50.818;4.344;2023-10-08T04:13:22;10.07;;;4.63;;
34725;SDS011;20951;50.818;4.344;2023-10-08T04:15:48;10.40;;;4.53;;
34725;SDS011;20951;50.818;4.344;2023-10-08T04:18:14;10.57;;;4.40;;
34725;SDS011;20951;50.818;4.344;2023-10-08T04:20:40;10.60;;;4.85;;
34725;SDS011;20951;50.818;4.344;2023-10-08T04:23:24;10.45;;;4.55;;
34725;SDS011;20951;50.818;4.344;2023-10-08T04:25:50;10.90;;;4.85;;
34725;SDS011;20951;50.818;4.344;2023-10-08T04:28:29;9.25;;;4.47;;
34725;SDS011;20951;50.818;4.344;2023-10-08T04:30:56;8.65;;;4.22;;
34725;SDS011;20951;50.818;4.344;2023-10-08T04:33:39;9.50;;;4.68;;
34725;SDS011;20951;50.818;4.344;2023-10-08T04:36:06;9.85;;;4.55;;
34725;SDS011;20951;50.818;4.344;2023-10-08T04:38:35;8.93;;;4.70;;
34725;SDS011;20951;50.818;4.344;2023-10-08T04:41:11;11.50;;;4.78;;
34725;SDS011;20951;50.818;4.344;2023-10-08T04:43:37;10.82;;;4.60;;
34725;SDS011;20951;50.818;4.344;2023-10-08T04:46:03;9.85;;;4.88;;
34725;SDS011;20951;50.818;4.344;2023-10-08T04:48:33;11.73;;;4.70;;
34725;SDS011;20951;50.818;4.344;2023-10-08T04:51:01;10.00;;;4.75;;
34725;SDS011;20951;50.818;4.344;2023-10-08T04:53:29;9.68;;;4.95;;
34725;SDS011;20951;50.818;4.344;2023-10-08T04:56:02;8.88;;;4.57;;
34725;SDS011;20951;50.818;4.344;2023-10-08T04:58:38;8.52;;;4.53;;
34725;SDS011;20951;50.818;4.344;2023-10-08T05:01:11;9.33;;;4.90;;
34725;SDS011;20951;50.818;4.344;2023-10-08T05:03:55;11.10;;;4.90;;
34725;SDS011;20951;50.818;4.344;2023-10-08T05:06:42;11.13;;;4.95;;
34725;SDS011;20951;50.818;4.344;2023-10-08T05:09:26;10.70;;;4.72;;
34725;SDS011;20951;50.818;4.344;2023-10-08T05:12:10;10.55;;;5.00;;
34725;SDS011;20951;50.818;4.344;2023-10-08T05:14:53;10.68;;;4.88;;
34725;SDS011;20951;50.818;4.344;2023-10-08T05:17:42;11.13;;;4.82;;
34725;SDS011;20951;50.818;4.344;2023-10-08T05:20:16;10.05;;;4.82;;
34725;SDS011;20951;50.818;4.344;2023-10-08T05:22:55;7.82;;;4.75;;
34725;SDS011;20951;50.818;4.344;2023-10-08T05:25:31;10.13;;;4.75;;
34725;SDS011;20951;50.818;4.344;2023-10-08T05:28:05;11.02;;;4.53;;
34725;SDS011;20951;50.818;4.344;2023-10-08T05:30:49;9.48;;;4.97;;
34725;SDS011;20951;50.818;4.344;2023-10-08T05:33:30;11.40;;;4.72;;
34725;SDS011;20951;50.818;4.344;2023-10-08T05:38:52;8.68;;;4.80;;
34725;SDS011;20951;50.818;4.344;2023-10-08T05:41:28;11.75;;;4.80;;
34725;SDS011;20951;50.818;4.344;2023-10-08T05:44:04;9.13;;;4.97;;
34725;SDS011;20951;50.818;4.344;2023-10-08T05:46:48;10.07;;;4.80;;
34725;SDS011;20951;50.818;4.344;2023-10-08T05:49:21;10.55;;;5.43;;
34725;SDS011;20951;50.818;4.344;2023-10-08T05:52:00;9.68;;;4.72;;
34725;SDS011;20951;50.818;4.344;2023-10-08T05:54:31;10.73;;;4.93;;
34725;SDS011;20951;50.818;4.344;2023-10-08T05:57:03;10.95;;;4.90;;
34725;SDS011;20951;50.818;4.344;2023-10-08T05:59:39;10.18;;;5.15;;
34725;SDS011;20951;50.818;4.344;2023-10-08T06:05:13;15.30;;;5.80;;
34725;SDS011;20951;50.818;4.344;2023-10-08T06:10:36;7.68;;;4.72;;
34725;SDS011;20951;50.818;4.344;2023-10-08T06:13:09;8.98;;;4.95;;
34725;SDS011;20951;50.818;4.344;2023-10-08T06:15:42;10.65;;;4.80;;
34725;SDS011;20951;50.818;4.344;2023-10-08T06:18:34;8.93;;;4.43;;
34725;SDS011;20951;50.818;4.344;2023-10-08T06:21:00;10.55;;;5.50;;
34725;SDS011;20951;50.818;4.344;2023-10-08T06:23:33;9.82;;;5.13;;
34725;SDS011;20951;50.818;4.344;2023-10-08T06:26:07;10.68;;;5.20;;
34725;SDS011;20951;50.818;4.344;2023-10-08T06:28:37;14.32;;;5.32;;
34725;SDS011;20951;50.818;4.344;2023-10-08T06:31:04;11.18;;;5.00;;
34725;SDS011;20951;50.818;4.344;2023-10-08T06:33:40;11.02;;;5.30;;
34725;SDS011;20951;50.818;4.344;2023-10-08T06:36:10;11.27;;;5.10;;
34725;SDS011;20951;50.818;4.344;2023-10-08T06:38:41;10.15;;;5.28;;
34725;SDS011;20951;50.818;4.344;2023-10-08T06:41:12;9.50;;;5.50;;
34725;SDS011;20951;50.818;4.344;2023-10-08T06:43:38;13.32;;;6.22;;
34725;SDS011;20951;50.818;4.344;2023-10-08T06:46:04;14.32;;;5.97;;
34725;SDS011;20951;50.818;4.344;2023-10-08T06:48:39;12.35;;;5.50;;
34725;SDS011;20951;50.818;4.344;2023-10-08T06:51:12;11.57;;;5.60;;
34725;SDS011;20951;50.818;4.344;2023-10-08T06:53:40;9.57;;;4.95;;
34725;SDS011;20951;50.818;4.344;2023-10-08T06:56:13;12.80;;;5.63;;
34725;SDS011;20951;50.818;4.344;2023-10-08T06:58:40;9.88;;;5.18;;
34725;SDS011;20951;50.818;4.344;2023-10-08T07:01:20;11.88;;;6.13;;
34725;SDS011;20951;50.818;4.344;2023-10-08T07:03:50;9.68;;;5.13;;
34725;SDS011;20951;50.818;4.344;2023-10-08T07:06:28;10.70;;;5.05;;
34725;SDS011;20951;50.818;4.344;2023-10-08T07:08:57;9.70;;;5.20;;
34725;SDS011;20951;50.818;4.344;2023-10-08T07:11:24;8.32;;;4.63;;
34725;SDS011;20951;50.818;4.344;2023-10-08T07:13:53;10.10;;;4.88;;
34725;SDS011;20951;50.818;4.344;2023-10-08T07:16:26;10.43;;;4.75;;
34725;SDS011;20951;50.818;4.344;2023-10-08T07:18:53;10.45;;;4.95;;
34725;SDS011;20951;50.818;4.344;2023-10-08T07:21:26;11.40;;;5.43;;
34725;SDS011;20951;50.818;4.344;2023-10-08T07:24:14;9.73;;;4.88;;
34725;SDS011;20951;50.818;4.344;2023-10-08T07:26:50;9.55;;;4.78;;
34725;SDS011;20951;50.818;4.344;2023-10-08T07:29:20;11.10;;;5.15;;
34725;SDS011;20951;50.818;4.344;2023-10-08T07:31:50;10.13;;;5.68;;
34725;SDS011;20951;50.818;4.344;2023-10-08T07:34:19;10.48;;;4.82;;
34725;SDS011;20951;50.818;4.344;2023-10-08T07:36:56;11.18;;;5.40;;
34725;SDS011;20951;50.818;4.344;2023-10-08T07:39:22;12.68;;;4.80;;
34725;SDS011;20951;50.818;4.344;2023-10-08T07:42:02;11.70;;;5.13;;
34725;SDS011;20951;50.818;4.344;2023-10-08T07:44:30;13.05;;;5.45;;
34725;SDS011;20951;50.818;4.344;2023-10-08T07:46:56;13.88;;;5.30;;
34725;SDS011;20951;50.818;4.344;2023-10-08T07:49:23;12.68;;;5.22;;
34725;SDS011;20951;50.818;4.344;2023-10-08T07:51:55;10.30;;;5.15;;
34725;SDS011;20951;50.818;4.344;2023-10-08T07:54:41;11.23;;;4.70;;
34725;SDS011;20951;50.818;4.344;2023-10-08T07:57:08;13.27;;;5.17;;
34725;SDS011;20951;50.818;4.344;2023-10-08T07:59:34;10.43;;;5.05;;
34725;SDS011;20951;50.818;4.344;2023-10-08T08:02:06;11.18;;;5.25;;
34725;SDS011;20951;50.818;4.344;2023-10-08T08:04:43;12.27;;;5.63;;
34725;SDS011;20951;50.818;4.344;2023-10-08T08:07:10;9.88;;;5.40;;
34725;SDS011;20951;50.818;4.344;2023-10-08T08:09:43;13.00;;;5.28;;
34725;SDS011;20951;50.818;4.344;2023-10-08T08:12:38;7.85;;;5.25;;
34725;SDS011;20951;50.818;4.344;2023-10-08T08:15:07;9.45;;;5.20;;
34725;SDS011;20951;50.818;4.344;2023-10-08T08:17:43;10.63;;;4.97;;
34725;SDS011;20951;50.818;4.344;2023-10-08T08:20:16;12.55;;;5.32;;
34725;SDS011;20951;50.818;4.344;2023-10-08T08:22:55;11.45;;;5.07;;
34725;SDS011;20951;50.818;4.344;2023-10-08T08:25:21;11.20;;;5.43;;
34725;SDS011;20951;50.818;4.344;2023-10-08T08:28:01;10.20;;;5.15;;
34725;SDS011;20951;50.818;4.344;2023-10-08T08:30:41;12.30;;;5.63;;
34725;SDS011;20951;50.818;4.344;2023-10-08T08:33:11;11.88;;;4.95;;
34725;SDS011;20951;50.818;4.344;2023-10-08T08:35:47;14.90;;;5.68;;
34725;SDS011;20951;50.818;4.344;2023-10-08T08:38:26;11.93;;;5.72;;
34725;SDS011;20951;50.818;4.344;2023-10-08T08:41:02;12.02;;;5.65;;
34725;SDS011;20951;50.818;4.344;2023-10-08T08:43:35;9.43;;;5.63;;
34725;SDS011;20951;50.818;4.344;2023-10-08T08:46:04;12.00;;;5.55;;
34725;SDS011;20951;50.818;4.344;2023-10-08T08:48:32;11.55;;;5.35;;
34725;SDS011;20951;50.818;4.344;2023-10-08T08:51:00;12.38;;;6.55;;
34725;SDS011;20951;50.818;4.344;2023-10-08T08:53:26;13.68;;;6.03;;
34725;SDS011;20951;50.818;4.344;2023-10-08T08:55:53;11.07;;;5.93;;
34725;SDS011;20951;50.818;4.344;2023-10-08T08:58:23;11.20;;;5.50;;
34725;SDS011;20951;50.818;4.344;2023-10-08T09:00:50;12.65;;;5.82;;
34725;SDS011;20951;50.818;4.344;2023-10-08T09:03:28;13.93;;;5.93;;
34725;SDS011;20951;50.818;4.344;2023-10-08T09:05:58;11.82;;;6.03;;
34725;SDS011;20951;50.818;4.344;2023-10-08T09:08:42;11.25;;;5.97;;
34725;SDS011;20951;50.818;4.344;2023-10-08T09:11:16;12.40;;;5.38;;
34725;SDS011;20951;50.818;4.344;2023-10-08T09:13:51;12.88;;;5.60;;
34725;SDS011;20951;50.818;4.344;2023-10-08T09:16:18;12.38;;;5.72;;
34725;SDS011;20951;50.818;4.344;2023-10-08T09:18:46;13.63;;;6.00;;
34725;SDS011;20951;50.818;4.344;2023-10-08T09:21:14;11.57;;;5.88;;
34725;SDS011;20951;50.818;4.344;2023-10-08T09:23:44;10.73;;;5.68;;
34725;SDS011;20951;50.818;4.344;2023-10-08T09:26:14;12.65;;;5.60;;
34725;SDS011;20951;50.818;4.344;2023-10-08T09:28:46;12.00;;;5.88;;
34725;SDS011;20951;50.818;4.344;2023-10-08T09:31:12;10.80;;;5.43;;
34725;SDS011;20951;50.818;4.344;2023-10-08T09:33:38;11.70;;;5.68;;
34725;SDS011;20951;50.818;4.344;2023-10-08T09:36:07;11.13;;;5.82;;
34725;SDS011;20951;50.818;4.344;2023-10-08T09:38:36;11.73;;;6.30;;
34725;SDS011;20951;50.818;4.344;2023-10-08T09:41:03;12.48;;;6.00;;
34725;SDS011;20951;50.818;4.344;2023-10-08T09:43:36;11.70;;;5.95;;
34725;SDS011;20951;50.818;4.344;2023-10-08T09:48:52;15.88;;;6.38;;
34725;SDS011;20951;50.818;4.344;2023-10-08T09:51:25;16.30;;;6.18;;
34725;SDS011;20951;50.818;4.344;2023-10-08T09:56:35;15.10;;;6.50;;
34725;SDS011;20951;50.818;4.344;2023-10-08T09:59:04;17.52;;;5.90;;
34725;SDS011;20951;50.818;4.344;2023-10-08T10:01:30;11.70;;;5.90;;
34725;SDS011;20951;50.818;4.344;2023-10-08T10:03:59;13.57;;;6.40;;
34725;SDS011;20951;50.818;4.344;2023-10-08T10:06:30;20.05;;;8.20;;
34725;SDS011;20951;50.818;4.344;2023-10-08T10:09:05;14.05;;;6.07;;
34725;SDS011;20951;50.818;4.344;2023-10-08T10:11:51;14.65;;;6.28;;
34725;SDS011;20951;50.818;4.344;2023-10-08T10:14:40;14.40;;;6.38;;
34725;SDS011;20951;50.818;4.344;2023-10-08T10:17:14;13.13;;;6.07;;
34725;SDS011;20951;50.818;4.344;2023-10-08T10:19:54;18.38;;;6.90;;
34725;SDS011;20951;50.818;4.344;2023-10-08T10:22:27;16.08;;;6.43;;
34725;SDS011;20951;50.818;4.344;2023-10-08T10:24:56;13.25;;;6.10;;
34725;SDS011;20951;50.818;4.344;2023-10-08T10:27:23;15.27;;;5.93;;
34725;SDS011;20951;50.818;4.344;2023-10-08T10:29:49;11.18;;;5.55;;
34725;SDS011;20951;50.818;4.344;2023-10-08T10:32:15;14.07;;;6.35;;
34725;SDS011;20951;50.818;4.344;2023-10-08T10:34:41;13.32;;;6.03;;
34725;SDS011;20951;50.818;4.344;2023-10-08T10:37:08;12.10;;;6.47;;
34725;SDS011;20951;50.818;4.344;2023-10-08T10:39:50;12.00;;;6.40;;
34725;SDS011;20951;50.818;4.344;2023-10-08T10:42:26;9.98;;;5.82;;
34725;SDS011;20951;50.818;4.344;2023-10-08T10:44:53;10.68;;;5.72;;
34725;SDS011;20951;50.818;4.344;2023-10-08T10:47:21;12.45;;;5.80;;
34725;SDS011;20951;50.818;4.344;2023-10-08T10:49:48;11.55;;;6.07;;
34725;SDS011;20951;50.818;4.344;2023-10-08T10:52:16;13.57;;;5.97;;
34725;SDS011;20951;50.818;4.344;2023-10-08T10:55:02;11.32;;;5.60;;
34725;SDS011;20951;50.818;4.344;2023-10-08T10:57:42;11.52;;;6.03;;
34725;SDS011;20951;50.818;4.344;2023-10-08T11:00:19;16.15;;;6.00;;
34725;SDS011;20951;50.818;4.344;2023-10-08T11:03:03;11.90;;;6.10;;
34725;SDS011;20951;50.818;4.344;2023-10-08T11:05:41;13.73;;;6.10;;
34725;SDS011;20951;50.818;4.344;2023-10-08T11:08:13;10.88;;;5.43;;
34725;SDS011;20951;50.818;4.344;2023-10-08T11:10:43;13.40;;;5.88;;
34725;SDS011;20951;50.818;4.344;2023-10-08T11:13:23;14.55;;;6.05;;
34725;SDS011;20951;50.818;4.344;2023-10-08T11:16:10;13.88;;;6.18;;
34725;SDS011;20951;50.818;4.344;2023-10-08T11:18:44;13.20;;;6.57;;
34725;SDS011;20951;50.818;4.344;2023-10-08T11:21:15;16.40;;;6.53;;
34725;SDS011;20951;50.818;4.344;2023-10-08T11:23:48;13.77;;;5.90;;
34725;SDS011;20951;50.818;4.344;2023-10-08T11:26:37;12.93;;;6.30;;
34725;SDS011;20951;50.818;4.344;2023-10-08T11:29:19;13.63;;;6.00;;
34725;SDS011;20951;50.818;4.344;2023-10-08T11:31:51;13.88;;;6.38;;
34725;SDS011;20951;50.818;4.344;2023-10-08T11:34:17;14.43;;;6.15;;
34725;SDS011;20951;50.818;4.344;2023-10-08T11:36:52;12.68;;;6.50;;
34725;SDS011;20951;50.818;4.344;2023-10-08T11:39:20;14.02;;;6.57;;
34725;SDS011;20951;50.818;4.344;2023-10-08T11:42:01;12.68;;;6.03;;
34725;SDS011;20951;50.818;4.344;2023-10-08T11:44:31;15.02;;;6.57;;
34725;SDS011;20951;50.818;4.344;2023-10-08T11:47:00;12.65;;;6.88;;
34725;SDS011;20951;50.818;4.344;2023-10-08T11:49:37;13.25;;;6.47;;
34725;SDS011;20951;50.818;4.344;2023-10-08T11:52:12;14.38;;;6.90;;
34725;SDS011;20951;50.818;4.344;2023-10-08T11:54:41;12.65;;;6.10;;
34725;SDS011;20951;50.818;4.344;2023-10-08T11:57:11;10.50;;;6.05;;
34725;SDS011;20951;50.818;4.344;2023-10-08T11:59:40;13.98;;;5.53;;
34725;SDS011;20951;50.818;4.344;2023-10-08T12:02:11;11.57;;;5.72;;
34725;SDS011;20951;50.818;4.344;2023-10-08T12:04:42;14.13;;;6.03;;
34725;SDS011;20951;50.818;4.344;2023-10-08T12:07:10;11.60;;;6.00;;
34725;SDS011;20951;50.818;4.344;2023-10-08T12:09:36;13.45;;;6.07;;
34725;SDS011;20951;50.818;4.344;2023-10-08T12:12:13;11.82;;;6.50;;
34725;SDS011;20951;50.818;4.344;2023-10-08T12:14:48;12.80;;;5.88;;
34725;SDS011;20951;50.818;4.344;2023-10-08T12:17:14;15.95;;;6.07;;
34725;SDS011;20951;50.818;4.344;2023-10-08T12:19:42;13.50;;;5.88;;
34725;SDS011;20951;50.818;4.344;2023-10-08T12:22:08;12.38;;;5.68;;
34725;SDS011;20951;50.818;4.344;2023-10-08T12:24:34;13.23;;;6.13;;
34725;SDS011;20951;50.818;4.344;2023-10-08T12:27:00;13.05;;;6.03;;
34725;SDS011;20951;50.818;4.344;2023-10-08T12:29:28;15.30;;;5.97;;
34725;SDS011;20951;50.818;4.344;2023-10-08T12:31:56;13.90;;;6.13;;
34725;SDS011;20951;50.818;4.344;2023-10-08T12:34:24;13.43;;;6.22;;
34725;SDS011;20951;50.818;4.344;2023-10-08T12:36:51;13.07;;;6.00;;
34725;SDS011;20951;50.818;4.344;2023-10-08T12:39:19;17.17;;;6.60;;
34725;SDS011;20951;50.818;4.344;2023-10-08T12:41:50;10.32;;;5.40;;
34725;SDS011;20951;50.818;4.344;2023-10-08T12:44:18;13.90;;;5.80;;
34725;SDS011;20951;50.818;4.344;2023-10-08T12:46:44;11.10;;;5.50;;
34725;SDS011;20951;50.818;4.344;2023-10-08T12:49:13;12.00;;;6.00;;
34725;SDS011;20951;50.818;4.344;2023-10-08T12:51:39;14.65;;;6.35;;
34725;SDS011;20951;50.818;4.344;2023-10-08T12:54:06;11.35;;;5.47;;
34725;SDS011;20951;50.818;4.344;2023-10-08T12:56:33;12.77;;;6.43;;
34725;SDS011;20951;50.818;4.344;2023-10-08T12:59:13;12.68;;;6.20;;
34725;SDS011;20951;50.818;4.344;2023-10-08T13:01:49;12.65;;;5.88;;
34725;SDS011;20951;50.818;4.344;2023-10-08T13:04:31;11.27;;;5.75;;
34725;SDS011;20951;50.818;4.344;2023-10-08T13:07:13;14.55;;;6.22;;
34725;SDS011;20951;50.818;4.344;2023-10-08T13:09:46;10.90;;;6.10;;
34725;SDS011;20951;50.818;4.344;2023-10-08T13:12:12;14.88;;;6.10;;
34725;SDS011;20951;50.818;4.344;2023-10-08T13:14:40;16.60;;;6.10;;
34725;SDS011;20951;50.818;4.344;2023-10-08T13:17:09;12.43;;;5.57;;
34725;SDS011;20951;50.818;4.344;2023-10-08T13:19:39;13.48;;;5.72;;
34725;SDS011;20951;50.818;4.344;2023-10-08T13:22:04;11.43;;;6.22;;
34725;SDS011;20951;50.818;4.344;2023-10-08T13:24:32;14.90;;;6.45;;
34725;SDS011;20951;50.818;4.344;2023-10-08T13:27:00;12.35;;;6.03;;
34725;SDS011;20951;50.818;4.344;2023-10-08T13:29:26;13.23;;;5.82;;
34725;SDS011;20951;50.818;4.344;2023-10-08T13:31:52;11.80;;;6.38;;
34725;SDS011;20951;50.818;4.344;2023-10-08T13:34:19;11.38;;;6.20;;
34725;SDS011;20951;50.818;4.344;2023-10-08T13:36:46;12.10;;;6.70;;
34725;SDS011;20951;50.818;4.344;2023-10-08T13:39:14;12.10;;;6.53;;
34725;SDS011;20951;50.818;4.344;2023-10-08T13:41:43;14.10;;;6.78;;
34725;SDS011;20951;50.818;4.344;2023-10-08T13:44:13;11.93;;;6.03;;
34725;SDS011;20951;50.818;4.344;2023-10-08T13:46:39;12.27;;;6.63;;
34725;SDS011;20951;50.818;4.344;2023-10-08T13:49:13;12.68;;;6.38;;
34725;SDS011;20951;50.818;4.344;2023-10-08T13:51:41;10.13;;;6.75;;
34725;SDS011;20951;50.818;4.344;2023-10-08T13:54:09;10.60;;;5.72;;
34725;SDS011;20951;50.818;4.344;2023-10-08T13:56:36;14.85;;;6.90;;
34725;SDS011;20951;50.818;4.344;2023-10-08T13:59:15;10.55;;;5.82;;
34725;SDS011;20951;50.818;4.344;2023-10-08T14:01:43;13.77;;;5.85;;
34725;SDS011;20951;50.818;4.344;2023-10-08T14:06:54;12.30;;;5.28;;
34725;SDS011;20951;50.818;4.344;2023-10-08T14:09:37;16.00;;;6.53;;
34725;SDS011;20951;50.818;4.344;2023-10-08T14:12:06;14.00;;;6.07;;
34725;SDS011;20951;50.818;4.344;2023-10-08T14:14:35;9.65;;;5.63;;
34725;SDS011;20951;50.818;4.344;2023-10-08T14:17:06;14.38;;;6.22;;
34725;SDS011;20951;50.818;4.344;2023-10-08T14:19:32;12.43;;;6.03;;
34725;SDS011;20951;50.818;4.344;2023-10-08T14:22:24;11.18;;;5.88;;
34725;SDS011;20951;50.818;4.344;2023-10-08T14:24:52;11.85;;;6.72;;
34725;SDS011;20951;50.818;4.344;2023-10-08T14:27:24;11.48;;;5.60;;
34725;SDS011;20951;50.818;4.344;2023-10-08T14:29:56;10.80;;;5.47;;
34725;SDS011;20951;50.818;4.344;2023-10-08T14:32:26;10.93;;;5.75;;
34725;SDS011;20951;50.818;4.344;2023-10-08T14:34:53;11.77;;;6.15;;
34725;SDS011;20951;50.818;4.344;2023-10-08T14:37:37;12.13;;;5.57;;
34725;SDS011;20951;50.818;4.344;2023-10-08T14:40:21;11.70;;;6.72;;
34725;SDS011;20951;50.818;4.344;2023-10-08T14:45:36;10.75;;;6.03;;
34725;SDS011;20951;50.818;4.344;2023-10-08T14:48:02;11.48;;;6.20;;
34725;SDS011;20951;50.818;4.344;2023-10-08T14:50:31;12.00;;;5.57;;
34725;SDS011;20951;50.818;4.344;2023-10-08T14:53:00;13.43;;;5.95;;
34725;SDS011;20951;50.818;4.344;2023-10-08T14:55:29;13.50;;;5.82;;
34725;SDS011;20951;50.818;4.344;2023-10-08T14:58:01;11.55;;;5.68;;
34725;SDS011;20951;50.818;4.344;2023-10-08T15:00:41;10.95;;;5.68;;
34725;SDS011;20951;50.818;4.344;2023-10-08T15:03:17;12.63;;;6.00;;
34725;SDS011;20951;50.818;4.344;2023-10-08T15:05:45;11.27;;;5.57;;
34725;SDS011;20951;50.818;4.344;2023-10-08T15:08:14;11.02;;;5.55;;
34725;SDS011;20951;50.818;4.344;2023-10-08T15:10:51;12.32;;;5.82;;
34725;SDS011;20951;50.818;4.344;2023-10-08T15:13:19;10.15;;;5.53;;
34725;SDS011;20951;50.818;4.344;2023-10-08T15:15:53;9.88;;;5.22;;
34725;SDS011;20951;50.818;4.344;2023-10-08T15:18:19;10.85;;;5.93;;
34725;SDS011;20951;50.818;4.344;2023-10-08T15:20:55;10.38;;;5.47;;
34725;SDS011;20951;50.818;4.344;2023-10-08T15:23:21;11.45;;;5.28;;
34725;SDS011;20951;50.818;4.344;2023-10-08T15:25:52;11.23;;;6.05;;
34725;SDS011;20951;50.818;4.344;2023-10-08T15:28:20;10.65;;;5.55;;
34725;SDS011;20951;50.818;4.344;2023-10-08T15:30:46;12.23;;;6.00;;